sensor_id;sensor_type;location;lat;lon;timestamp;pressure;altitude;pressure_sealevel;temperature;humidity
40117;BME280;25829;50.228;18.936;2023-05-20T00:02:36;99438.22;;;10.35;76.41
40117;BME280;25829;50.228;18.936;2023-05-20T00:05:36;99435.59;;;10.35;76.58
40117;BME280;25829;50.228;18.936;2023-05-20T00:08:37;99439.22;;;10.34;76.68
40117;BME280;25829;50.228;18.936;2023-05-20T00:11:38;99435.59;;;10.35;76.53
40117;BME280;25829;50.228;18.936;2023-05-20T00:14:39;99445.38;;;10.42;76.52
40117;BME280;25829;50.228;18.936;2023-05-20T00:17:39;99436.66;;;10.41;76.52
40117;BME280;25829;50.228;18.936;2023-05-20T00:20:40;99439.66;;;10.38;76.55
40117;BME280;25829;50.228;18.936;2023-05-20T00:23:41;99434.28;;;10.31;76.33
40117;BME280;25829;50.228;18.936;2023-05-20T00:26:41;99435.13;;;10.32;76.56
40117;BME280;25829;50.228;18.936;2023-05-20T00:29:42;99438.41;;;10.34;76.47
40117;BME280;25829;50.228;18.936;2023-05-20T00:32:43;99435.75;;;10.34;76.20
40117;BME280;25829;50.228;18.936;2023-05-20T00:35:44;99433.22;;;10.41;76.17
40117;BME280;25829;50.228;18.936;2023-05-20T00:38:44;99426.47;;;10.38;76.14
40117;BME280;25829;50.228;18.936;2023-05-20T00:41:45;99433.41;;;10.39;76.12
40117;BME280;25829;50.228;18.936;2023-05-20T00:44:46;99428.66;;;10.34;75.82
40117;BME280;25829;50.228;18.936;2023-05-20T00:47:47;99428.66;;;10.34;76.13
40117;BME280;25829;50.228;18.936;2023-05-20T00:50:48;99423.56;;;10.33;76.27
40117;BME280;25829;50.228;18.936;2023-05-20T00:53:50;99426.03;;;10.34;76.10
40117;BME280;25829;50.228;18.936;2023-05-20T00:56:51;99414.19;;;10.30;76.20
40117;BME280;25829;50.228;18.936;2023-05-20T00:59:52;99414.50;;;10.35;76.51
40117;BME280;25829;50.228;18.936;2023-05-20T01:02:54;99421.19;;;10.38;76.39
40117;BME280;25829;50.228;18.936;2023-05-20T01:05:56;99416.56;;;10.40;76.20
40117;BME280;25829;50.228;18.936;2023-05-20T01:08:56;99408.47;;;10.42;75.93
40117;BME280;25829;50.228;18.936;2023-05-20T01:12:15;99407.28;;;10.44;76.03
40117;BME280;25829;50.228;18.936;2023-05-20T01:15:17;99414.03;;;10.47;76.20
40117;BME280;25829;50.228;18.936;2023-05-20T01:18:19;99409.75;;;10.46;75.98
40117;BME280;25829;50.228;18.936;2023-05-20T01:21:20;99407.13;;;10.46;76.14
40117;BME280;25829;50.228;18.936;2023-05-20T01:24:24;99406.03;;;10.40;75.95
40117;BME280;25829;50.228;18.936;2023-05-20T01:27:25;99399.38;;;10.29;76.00
40117;BME280;25829;50.228;18.936;2023-05-20T01:30:29;99409.47;;;10.26;76.46
40117;BME280;25829;50.228;18.936;2023-05-20T01:33:35;99409.28;;;10.27;76.24
40117;BME280;25829;50.228;18.936;2023-05-20T01:36:38;99412.28;;;10.24;76.15
40117;BME280;25829;50.228;18.936;2023-05-20T01:39:40;99407.41;;;10.21;76.30
40117;BME280;25829;50.228;18.936;2023-05-20T01:42:42;99413.66;;;10.20;76.35
40117;BME280;25829;50.228;18.936;2023-05-20T01:45:44;99411.38;;;10.17;76.35
40117;BME280;25829;50.228;18.936;2023-05-20T01:48:45;99409.75;;;10.16;76.35
40117;BME280;25829;50.228;18.936;2023-05-20T01:51:45;99413.66;;;10.20;76.31
40117;BME280;25829;50.228;18.936;2023-05-20T01:54:46;99407.22;;;10.23;76.57
40117;BME280;25829;50.228;18.936;2023-05-20T01:57:53;99410.09;;;10.28;76.49
40117;BME280;25829;50.228;18.936;2023-05-20T02:00:54;99409.94;;;10.29;76.17
40117;BME280;25829;50.228;18.936;2023-05-20T02:03:55;99406.94;;;10.32;76.15
40117;BME280;25829;50.228;18.936;2023-05-20T02:06:56;99414.28;;;10.37;76.04
40117;BME280;25829;50.228;18.936;2023-05-20T02:09:57;99412.91;;;10.41;76.27
40117;BME280;25829;50.228;18.936;2023-05-20T02:12:58;99406.47;;;10.44;76.22
40117;BME280;25829;50.228;18.936;2023-05-20T02:15:59;99400.38;;;10.43;75.77
40117;BME280;25829;50.228;18.936;2023-05-20T02:19:00;99409.47;;;10.41;76.05
40117;BME280;25829;50.228;18.936;2023-05-20T02:22:02;99407.66;;;10.41;75.99
40117;BME280;25829;50.228;18.936;2023-05-20T02:25:05;99417.03;;;10.44;75.76
40117;BME280;25829;50.228;18.936;2023-05-20T02:28:07;99407.28;;;10.44;75.80
40117;BME280;25829;50.228;18.936;2023-05-20T02:31:10;99411.94;;;10.42;75.52
40117;BME280;25829;50.228;18.936;2023-05-20T02:34:10;99424.28;;;10.42;75.92
40117;BME280;25829;50.228;18.936;2023-05-20T02:37:11;99423.66;;;10.40;75.89
40117;BME280;25829;50.228;18.936;2023-05-20T02:40:12;99429.09;;;10.38;75.95
40117;BME280;25829;50.228;18.936;2023-05-20T02:43:13;99420.38;;;10.38;75.66
40117;BME280;25829;50.228;18.936;2023-05-20T02:46:14;99429.97;;;10.39;75.90
40117;BME280;25829;50.228;18.936;2023-05-20T02:49:17;99432.94;;;10.35;75.68
40117;BME280;25829;50.228;18.936;2023-05-20T02:52:19;99423.94;;;10.30;75.95
40117;BME280;25829;50.228;18.936;2023-05-20T02:55:20;99431.41;;;10.26;75.94
40117;BME280;25829;50.228;18.936;2023-05-20T02:58:20;99427.38;;;10.30;76.39
40117;BME280;25829;50.228;18.936;2023-05-20T03:01:26;99428.19;;;10.31;76.45
40117;BME280;25829;50.228;18.936;2023-05-20T03:04:27;99424.13;;;10.28;76.47
40117;BME280;25829;50.228;18.936;2023-05-20T03:07:27;99432.66;;;10.30;76.41
40117;BME280;25829;50.228;18.936;2023-05-20T03:10:28;99421.66;;;10.27;76.70
40117;BME280;25829;50.228;18.936;2023-05-20T03:13:29;99421.84;;;10.25;76.68
40117;BME280;25829;50.228;18.936;2023-05-20T03:16:32;99424.94;;;10.29;76.97
40117;BME280;25829;50.228;18.936;2023-05-20T03:19:34;99422.94;;;10.31;76.73
40117;BME280;25829;50.228;18.936;2023-05-20T03:22:37;99423.75;;;10.31;76.93
40117;BME280;25829;50.228;18.936;2023-05-20T03:25:39;99439.41;;;10.33;77.08
40117;BME280;25829;50.228;18.936;2023-05-20T03:28:40;99438.75;;;10.31;77.21
40117;BME280;25829;50.228;18.936;2023-05-20T03:31:42;99438.75;;;10.31;77.27
40117;BME280;25829;50.228;18.936;2023-05-20T03:34:43;99436.94;;;10.31;77.24
40117;BME280;25829;50.228;18.936;2023-05-20T03:37:44;99429.41;;;10.28;77.40
40117;BME280;25829;50.228;18.936;2023-05-20T03:40:46;99424.28;;;10.27;77.44
40117;BME280;25829;50.228;18.936;2023-05-20T03:43:46;99433.84;;;10.28;77.76
40117;BME280;25829;50.228;18.936;2023-05-20T03:46:47;99424.94;;;10.29;77.69
40117;BME280;25829;50.228;18.936;2023-05-20T03:49:48;99424.75;;;10.30;77.86
40117;BME280;25829;50.228;18.936;2023-05-20T03:52:49;99429.22;;;10.30;77.85
40117;BME280;25829;50.228;18.936;2023-05-20T03:55:52;99432.84;;;10.29;77.87
40117;BME280;25829;50.228;18.936;2023-05-20T03:58:53;99440.22;;;10.33;77.71
40117;BME280;25829;50.228;18.936;2023-05-20T04:01:54;99435.75;;;10.34;77.82
40117;BME280;25829;50.228;18.936;2023-05-20T04:04:56;99446.31;;;10.34;77.78
40117;BME280;25829;50.228;18.936;2023-05-20T04:07:58;99435.50;;;10.29;77.99
40117;BME280;25829;50.228;18.936;2023-05-20T04:11:00;99431.66;;;10.31;77.92
40117;BME280;25829;50.228;18.936;2023-05-20T04:14:04;99437.59;;;10.33;77.91
40117;BME280;25829;50.228;18.936;2023-05-20T04:17:05;99439.50;;;10.40;78.00
40117;BME280;25829;50.228;18.936;2023-05-20T04:20:07;99440.13;;;10.42;77.86
40117;BME280;25829;50.228;18.936;2023-05-20T04:23:10;99441.41;;;10.46;77.87
40117;BME280;25829;50.228;18.936;2023-05-20T04:26:11;99442.03;;;10.48;77.51
40117;BME280;25829;50.228;18.936;2023-05-20T04:29:12;99443.50;;;10.50;77.72
40117;BME280;25829;50.228;18.936;2023-05-20T04:32:18;99446.03;;;10.58;77.72
40117;BME280;25829;50.228;18.936;2023-05-20T04:35:19;99436.38;;;10.66;77.48
40117;BME280;25829;50.228;18.936;2023-05-20T04:38:22;99438.66;;;10.69;77.69
40117;BME280;25829;50.228;18.936;2023-05-20T04:41:23;99436.13;;;10.75;77.19
40117;BME280;25829;50.228;18.936;2023-05-20T04:44:24;99430.47;;;10.78;77.34
40117;BME280;25829;50.228;18.936;2023-05-20T04:47:26;99429.09;;;10.82;77.38
40117;BME280;25829;50.228;18.936;2023-05-20T04:50:27;99436.47;;;10.87;77.18
40117;BME280;25829;50.228;18.936;2023-05-20T04:53:28;99431.44;;;10.92;77.42
40117;BME280;25829;50.228;18.936;2023-05-20T04:56:34;99428.44;;;10.95;77.11
40117;BME280;25829;50.228;18.936;2023-05-20T04:59:35;99435.19;;;10.98;77.02
40117;BME280;25829;50.228;18.936;2023-05-20T05:02:37;99433.59;;;11.03;77.03
40117;BME280;25829;50.228;18.936;2023-05-20T05:05:41;99446.25;;;11.08;77.31
40117;BME280;25829;50.228;18.936;2023-05-20T05:08:42;99443.06;;;11.13;77.29
40117;BME280;25829;50.228;18.936;2023-05-20T05:20:33;99438.84;;;11.18;76.98
40117;BME280;25829;50.228;18.936;2023-05-20T05:23:34;99434.00;;;11.22;77.08
40117;BME280;25829;50.228;18.936;2023-05-20T05:26:35;99429.53;;;11.22;76.96
40117;BME280;25829;50.228;18.936;2023-05-20T05:29:37;99427.34;;;11.26;76.91
40117;BME280;25829;50.228;18.936;2023-05-20T05:32:37;99429.41;;;11.30;77.15
40117;BME280;25829;50.228;18.936;2023-05-20T05:35:38;99423.75;;;11.34;77.05
40117;BME280;25829;50.228;18.936;2023-05-20T05:38:40;99421.34;;;11.39;76.92
40117;BME280;25829;50.228;18.936;2023-05-20T05:41:41;99429.16;;;11.47;77.05
40117;BME280;25829;50.228;18.936;2023-05-20T05:44:43;99423.50;;;11.50;76.77
40117;BME280;25829;50.228;18.936;2023-05-20T05:47:44;99421.31;;;11.53;76.69
40117;BME280;25829;50.228;18.936;2023-05-20T05:50:46;99427.56;;;11.52;76.61
40117;BME280;25829;50.228;18.936;2023-05-20T05:53:48;99427.41;;;11.54;76.92
40117;BME280;25829;50.228;18.936;2023-05-20T05:56:52;99428.44;;;11.60;76.86
40117;BME280;25829;50.228;18.936;2023-05-20T05:59:54;99432.53;;;11.62;76.81
40117;BME280;25829;50.228;18.936;2023-05-20T06:02:56;99436.63;;;11.65;76.73
40117;BME280;25829;50.228;18.936;2023-05-20T06:06:05;99426.50;;;11.68;76.51
40117;BME280;25829;50.228;18.936;2023-05-20T06:09:07;99428.56;;;11.73;76.32
40117;BME280;25829;50.228;18.936;2023-05-20T06:12:08;99433.47;;;11.76;76.58
40117;BME280;25829;50.228;18.936;2023-05-20T06:15:09;99418.63;;;11.75;75.98
40117;BME280;25829;50.228;18.936;2023-05-20T06:18:11;99417.59;;;11.76;76.22
40117;BME280;25829;50.228;18.936;2023-05-20T06:21:14;99415.97;;;11.75;76.54
40117;BME280;25829;50.228;18.936;2023-05-20T06:24:14;99408.69;;;11.77;75.91
40117;BME280;25829;50.228;18.936;2023-05-20T06:27:15;99411.13;;;11.78;76.01
40117;BME280;25829;50.228;18.936;2023-05-20T06:30:16;99415.00;;;11.83;75.90
40117;BME280;25829;50.228;18.936;2023-05-20T06:33:17;99402.88;;;11.88;75.84
40117;BME280;25829;50.228;18.936;2023-05-20T06:40:41;99415.06;;;12.17;75.75
40117;BME280;25829;50.228;18.936;2023-05-20T06:43:42;99410.59;;;12.18;75.42
40117;BME280;25829;50.228;18.936;2023-05-20T06:47:02;99410.06;;;12.29;75.29
40117;BME280;25829;50.228;18.936;2023-05-20T06:50:04;99403.03;;;12.43;75.48
40117;BME280;25829;50.228;18.936;2023-05-20T06:53:05;99403.91;;;12.57;75.38
40117;BME280;25829;50.228;18.936;2023-05-20T06:56:06;99402.09;;;12.64;75.13
40117;BME280;25829;50.228;18.936;2023-05-20T06:59:07;99413.53;;;12.71;74.95
40117;BME280;25829;50.228;18.936;2023-05-20T07:02:09;99410.69;;;12.79;74.31
40117;BME280;25829;50.228;18.936;2023-05-20T07:05:11;99413.38;;;12.86;74.41
40117;BME280;25829;50.228;18.936;2023-05-20T07:08:12;99405.03;;;12.89;74.37
40117;BME280;25829;50.228;18.936;2023-05-20T07:11:14;99397.50;;;12.92;73.74
40117;BME280;25829;50.228;18.936;2023-05-20T07:14:15;99394.25;;;12.97;74.01
40117;BME280;25829;50.228;18.936;2023-05-20T07:17:16;99400.75;;;13.01;73.74
40117;BME280;25829;50.228;18.936;2023-05-20T07:20:18;99391.44;;;13.05;73.87
40117;BME280;25829;50.228;18.936;2023-05-20T07:23:20;99388.75;;;13.12;73.91
40117;BME280;25829;50.228;18.936;2023-05-20T07:26:26;99385.28;;;13.11;73.51
40117;BME280;25829;50.228;18.936;2023-05-20T07:29:27;99397.78;;;13.17;73.81
40117;BME280;25829;50.228;18.936;2023-05-20T07:32:27;99384.53;;;13.24;73.45
40117;BME280;25829;50.228;18.936;2023-05-20T07:35:29;99392.28;;;13.32;73.47
40117;BME280;25829;50.228;18.936;2023-05-20T07:38:30;99384.34;;;13.39;73.34
40117;BME280;25829;50.228;18.936;2023-05-20T07:41:35;99400.06;;;13.40;73.30
40117;BME280;25829;50.228;18.936;2023-05-20T07:44:35;99400.47;;;13.44;73.10
40117;BME280;25829;50.228;18.936;2023-05-20T07:47:38;99396.78;;;13.52;73.48
40117;BME280;25829;50.228;18.936;2023-05-20T07:50:39;99392.09;;;13.60;73.07
40117;BME280;25829;50.228;18.936;2023-05-20T07:53:40;99388.44;;;13.68;72.76
40117;BME280;25829;50.228;18.936;2023-05-20T07:56:41;99383.94;;;13.75;72.82
40117;BME280;25829;50.228;18.936;2023-05-20T07:59:43;99383.94;;;13.82;72.27
40117;BME280;25829;50.228;18.936;2023-05-20T08:02:44;99385.75;;;13.88;72.59
40117;BME280;25829;50.228;18.936;2023-05-20T08:05:52;99375.94;;;13.95;72.15
40117;BME280;25829;50.228;18.936;2023-05-20T08:08:52;99377.56;;;14.03;72.21
40117;BME280;25829;50.228;18.936;2023-05-20T08:11:58;99378.56;;;14.15;72.26
40117;BME280;25829;50.228;18.936;2023-05-20T08:14:59;99374.47;;;14.26;72.36
40117;BME280;25829;50.228;18.936;2023-05-20T08:18:00;99364.84;;;14.38;71.83
40117;BME280;25829;50.228;18.936;2023-05-20T08:21:01;99352.97;;;14.47;71.89
40117;BME280;25829;50.228;18.936;2023-05-20T08:24:03;99339.84;;;14.59;71.53
40117;BME280;25829;50.228;18.936;2023-05-20T08:27:05;99348.59;;;14.66;71.39
40117;BME280;25829;50.228;18.936;2023-05-20T08:30:07;99349.34;;;14.73;71.25
40117;BME280;25829;50.228;18.936;2023-05-20T08:33:10;99352.22;;;14.78;70.83
40117;BME280;25829;50.228;18.936;2023-05-20T08:36:12;99344.41;;;14.83;70.88
40117;BME280;25829;50.228;18.936;2023-05-20T08:39:13;99346.16;;;14.96;70.67
40117;BME280;25829;50.228;18.936;2023-05-20T08:42:14;99349.31;;;15.12;70.50
40117;BME280;25829;50.228;18.936;2023-05-20T08:45:20;99352.75;;;15.19;70.46
40117;BME280;25829;50.228;18.936;2023-05-20T08:48:26;99345.56;;;15.26;70.20
40117;BME280;25829;50.228;18.936;2023-05-20T08:51:31;99349.38;;;15.37;70.33
40117;BME280;25829;50.228;18.936;2023-05-20T08:54:43;99351.13;;;15.49;69.96
40117;BME280;25829;50.228;18.936;2023-05-20T08:57:45;99351.66;;;15.58;69.78
40117;BME280;25829;50.228;18.936;2023-05-20T09:00:46;99347.53;;;15.62;69.53
40117;BME280;25829;50.228;18.936;2023-05-20T09:03:49;99353.66;;;15.63;68.69
40117;BME280;25829;50.228;18.936;2023-05-20T09:06:50;99356.09;;;15.64;68.81
40117;BME280;25829;50.228;18.936;2023-05-20T09:09:51;99352.41;;;15.65;68.87
40117;BME280;25829;50.228;18.936;2023-05-20T09:12:51;99348.47;;;15.68;68.38
40117;BME280;25829;50.228;18.936;2023-05-20T09:15:52;99349.09;;;15.70;68.47
40117;BME280;25829;50.228;18.936;2023-05-20T09:18:56;99355.16;;;15.77;68.85
40117;BME280;25829;50.228;18.936;2023-05-20T09:21:57;99361.41;;;15.89;69.15
40117;BME280;25829;50.228;18.936;2023-05-20T09:24:57;99351.97;;;16.30;69.48
40117;BME280;25829;50.228;18.936;2023-05-20T09:27:58;99354.66;;;16.60;68.29
40117;BME280;25829;50.228;18.936;2023-05-20T09:30:59;99351.47;;;16.70;67.20
40117;BME280;25829;50.228;18.936;2023-05-20T09:34:02;99347.75;;;16.71;66.98
40117;BME280;25829;50.228;18.936;2023-05-20T09:37:04;99346.25;;;16.75;67.15
40117;BME280;25829;50.228;18.936;2023-05-20T09:40:07;99339.91;;;16.76;66.61
40117;BME280;25829;50.228;18.936;2023-05-20T09:43:10;99340.38;;;16.73;66.59
40117;BME280;25829;50.228;18.936;2023-05-20T09:46:12;99336.56;;;16.81;66.71
40117;BME280;25829;50.228;18.936;2023-05-20T09:49:13;99336.13;;;16.95;66.37
40117;BME280;25829;50.228;18.936;2023-05-20T09:52:16;99326.47;;;17.13;66.61
40117;BME280;25829;50.228;18.936;2023-05-20T09:55:18;99326.97;;;17.21;65.52
40117;BME280;25829;50.228;18.936;2023-05-20T09:58:21;99327.31;;;17.25;65.54
40117;BME280;25829;50.228;18.936;2023-05-20T10:01:23;99327.31;;;17.25;65.64
40117;BME280;25829;50.228;18.936;2023-05-20T10:04:25;99335.31;;;17.25;65.33
40117;BME280;25829;50.228;18.936;2023-05-20T10:11:15;99337.28;;;16.99;64.76
40117;BME280;25829;50.228;18.936;2023-05-20T10:14:37;99334.63;;;16.99;65.13
40117;BME280;25829;50.228;18.936;2023-05-20T10:21:40;99327.50;;;17.12;65.78
40117;BME280;25829;50.228;18.936;2023-05-20T10:24:43;99324.50;;;17.20;65.15
40117;BME280;25829;50.228;18.936;2023-05-20T10:27:45;99328.47;;;17.17;63.91
40117;BME280;25829;50.228;18.936;2023-05-20T10:30:49;99325.03;;;17.10;64.55
40117;BME280;25829;50.228;18.936;2023-05-20T10:33:52;99320.69;;;17.16;64.37
40117;BME280;25829;50.228;18.936;2023-05-20T10:40:10;99313.16;;;17.36;64.27
40117;BME280;25829;50.228;18.936;2023-05-20T10:43:16;99305.16;;;17.48;64.82
40117;BME280;25829;50.228;18.936;2023-05-20T10:46:18;99301.22;;;17.62;64.18
40117;BME280;25829;50.228;18.936;2023-05-20T10:49:21;99309.69;;;17.71;63.30
40117;BME280;25829;50.228;18.936;2023-05-20T10:52:23;99313.41;;;17.70;63.47
40117;BME280;25829;50.228;18.936;2023-05-20T10:55:24;99308.53;;;17.67;63.65
40117;BME280;25829;50.228;18.936;2023-05-20T10:58:24;99301.59;;;17.66;63.34
40117;BME280;25829;50.228;18.936;2023-05-20T11:01:26;99298.78;;;17.61;63.55
40117;BME280;25829;50.228;18.936;2023-05-20T11:04:28;99297.63;;;17.57;63.43
40117;BME280;25829;50.228;18.936;2023-05-20T11:07:32;99294.84;;;17.52;62.97
40117;BME280;25829;50.228;18.936;2023-05-20T11:10:36;99295.88;;;17.51;63.40
40117;BME280;25829;50.228;18.936;2023-05-20T11:13:37;99292.41;;;17.50;63.56
40117;BME280;25829;50.228;18.936;2023-05-20T11:16:38;99294.03;;;17.51;63.35
40117;BME280;25829;50.228;18.936;2023-05-20T11:19:39;99282.44;;;17.45;63.12
40117;BME280;25829;50.228;18.936;2023-05-20T11:22:40;99278.94;;;17.45;63.70
40117;BME280;25829;50.228;18.936;2023-05-20T11:25:41;99277.13;;;17.45;63.43
40117;BME280;25829;50.228;18.936;2023-05-20T11:28:42;99276.75;;;17.54;63.16
40117;BME280;25829;50.228;18.936;2023-05-20T11:31:43;99278.84;;;17.63;63.11
40117;BME280;25829;50.228;18.936;2023-05-20T11:34:44;99269.66;;;17.71;63.08
40117;BME280;25829;50.228;18.936;2023-05-20T11:37:44;99275.25;;;17.69;62.61
40117;BME280;25829;50.228;18.936;2023-05-20T11:40:54;99269.19;;;17.62;62.15
40117;BME280;25829;50.228;18.936;2023-05-20T11:43:59;99256.69;;;17.51;63.22
40117;BME280;25829;50.228;18.936;2023-05-20T11:47:01;99251.22;;;17.58;63.71
40117;BME280;25829;50.228;18.936;2023-05-20T11:50:01;99254.81;;;17.63;62.86
40117;BME280;25829;50.228;18.936;2023-05-20T11:53:06;99252.50;;;17.55;63.17
40117;BME280;25829;50.228;18.936;2023-05-20T11:56:22;99240.91;;;17.61;63.67
40117;BME280;25829;50.228;18.936;2023-05-20T11:59:35;99238.00;;;17.63;63.60
40117;BME280;25829;50.228;18.936;2023-05-20T12:02:39;99236.50;;;17.67;63.75
40117;BME280;25829;50.228;18.936;2023-05-20T12:05:40;99246.09;;;17.68;63.39
40117;BME280;25829;50.228;18.936;2023-05-20T12:08:44;99232.66;;;17.63;62.45
40117;BME280;25829;50.228;18.936;2023-05-20T12:11:45;99229.06;;;17.57;63.35
40117;BME280;25829;50.228;18.936;2023-05-20T12:14:46;99223.63;;;17.64;64.11
40117;BME280;25829;50.228;18.936;2023-05-20T12:17:49;99222.69;;;17.70;63.54
40117;BME280;25829;50.228;18.936;2023-05-20T12:20:50;99218.72;;;17.73;63.34
40117;BME280;25829;50.228;18.936;2023-05-20T12:23:51;99215.91;;;17.79;63.75
40117;BME280;25829;50.228;18.936;2023-05-20T12:26:56;99217.41;;;17.87;63.55
40117;BME280;25829;50.228;18.936;2023-05-20T12:29:57;99208.22;;;17.95;63.43
40117;BME280;25829;50.228;18.936;2023-05-20T12:32:58;99197.19;;;18.03;63.11
40117;BME280;25829;50.228;18.936;2023-05-20T12:35:58;99201.25;;;18.05;63.07
40117;BME280;25829;50.228;18.936;2023-05-20T12:38:59;99202.84;;;18.06;62.79
40117;BME280;25829;50.228;18.936;2023-05-20T12:42:00;99197.28;;;18.08;63.16
40117;BME280;25829;50.228;18.936;2023-05-20T12:45:01;99184.03;;;18.13;63.04
40117;BME280;25829;50.228;18.936;2023-05-20T12:48:03;99183.28;;;18.17;62.29
40117;BME280;25829;50.228;18.936;2023-05-20T12:51:05;99192.22;;;18.23;62.38
40117;BME280;25829;50.228;18.936;2023-05-20T12:54:05;99182.94;;;18.26;62.28
40117;BME280;25829;50.228;18.936;2023-05-20T12:57:06;99184.88;;;18.30;62.44
40117;BME280;25829;50.228;18.936;2023-05-20T13:00:07;99167.56;;;18.33;62.32
40117;BME280;25829;50.228;18.936;2023-05-20T13:03:09;99187.53;;;18.30;62.31
40117;BME280;25829;50.228;18.936;2023-05-20T13:06:10;99181.25;;;18.36;62.88
40117;BME280;25829;50.228;18.936;2023-05-20T13:09:11;99181.91;;;18.44;62.61
40117;BME280;25829;50.228;18.936;2023-05-20T13:12:20;99180.34;;;18.48;62.32
40117;BME280;25829;50.228;18.936;2023-05-20T13:15:21;99175.34;;;18.51;61.97
40117;BME280;25829;50.228;18.936;2023-05-20T13:18:22;99169.03;;;18.57;61.59
40117;BME280;25829;50.228;18.936;2023-05-20T13:21:22;99181.44;;;18.63;61.92
40117;BME280;25829;50.228;18.936;2023-05-20T13:24:23;99173.16;;;18.65;61.43
40117;BME280;25829;50.228;18.936;2023-05-20T13:27:24;99172.09;;;18.66;61.85
40117;BME280;25829;50.228;18.936;2023-05-20T13:30:25;99164.41;;;18.70;61.89
40117;BME280;25829;50.228;18.936;2023-05-20T13:33:25;99151.72;;;18.77;61.86
40117;BME280;25829;50.228;18.936;2023-05-20T13:36:26;99154.44;;;18.82;61.62
40117;BME280;25829;50.228;18.936;2023-05-20T13:39:27;99148.03;;;18.83;61.06
40117;BME280;25829;50.228;18.936;2023-05-20T13:42:27;99142.69;;;18.83;60.33
40117;BME280;25829;50.228;18.936;2023-05-20T13:45:31;99149.44;;;18.85;60.78
40117;BME280;25829;50.228;18.936;2023-05-20T13:48:32;99139.88;;;18.90;60.95
40117;BME280;25829;50.228;18.936;2023-05-20T13:51:33;99145.06;;;18.96;60.74
40117;BME280;25829;50.228;18.936;2023-05-20T13:54:34;99147.81;;;19.01;60.82
40117;BME280;25829;50.228;18.936;2023-05-20T13:57:34;99132.09;;;19.05;60.43
40117;BME280;25829;50.228;18.936;2023-05-20T14:00:36;99131.59;;;19.08;60.30
40117;BME280;25829;50.228;18.936;2023-05-20T14:03:37;99133.53;;;19.13;60.54
40117;BME280;25829;50.228;18.936;2023-05-20T14:06:39;99119.97;;;19.19;60.40
40117;BME280;25829;50.228;18.936;2023-05-20T14:09:40;99110.44;;;19.28;60.20
40117;BME280;25829;50.228;18.936;2023-05-20T14:12:41;99111.59;;;19.32;60.07
40117;BME280;25829;50.228;18.936;2023-05-20T14:15:47;99102.31;;;19.40;60.01
40117;BME280;25829;50.228;18.936;2023-05-20T14:18:48;99109.34;;;19.46;60.38
40117;BME280;25829;50.228;18.936;2023-05-20T14:21:49;99113.69;;;19.52;59.82
40117;BME280;25829;50.228;18.936;2023-05-20T14:24:50;99108.91;;;19.54;58.84
40117;BME280;25829;50.228;18.936;2023-05-20T14:27:50;99101.66;;;19.55;58.71
40117;BME280;25829;50.228;18.936;2023-05-20T14:30:51;99088.28;;;19.55;58.85
40117;BME280;25829;50.228;18.936;2023-05-20T14:33:54;99094.22;;;19.57;58.76
40117;BME280;25829;50.228;18.936;2023-05-20T14:36:55;99087.03;;;19.63;58.43
40117;BME280;25829;50.228;18.936;2023-05-20T14:39:56;99082.28;;;19.65;57.89
40117;BME280;25829;50.228;18.936;2023-05-20T14:42:57;99096.47;;;19.65;57.81
40117;BME280;25829;50.228;18.936;2023-05-20T14:45:58;99084.69;;;19.66;57.93
40117;BME280;25829;50.228;18.936;2023-05-20T14:48:59;99083.66;;;19.67;57.10
40117;BME280;25829;50.228;18.936;2023-05-20T14:51:59;99090.09;;;19.71;57.69
40117;BME280;25829;50.228;18.936;2023-05-20T14:55:00;99075.41;;;19.74;57.89
40117;BME280;25829;50.228;18.936;2023-05-20T14:58:01;99082.91;;;19.77;57.88
40117;BME280;25829;50.228;18.936;2023-05-20T15:01:02;99072.78;;;19.79;57.68
40117;BME280;25829;50.228;18.936;2023-05-20T15:04:05;99070.13;;;19.84;57.92
40117;BME280;25829;50.228;18.936;2023-05-20T15:07:06;99057.88;;;19.88;57.54
40117;BME280;25829;50.228;18.936;2023-05-20T15:10:07;99058.41;;;19.90;56.24
40117;BME280;25829;50.228;18.936;2023-05-20T15:13:08;99066.75;;;19.94;56.20
40117;BME280;25829;50.228;18.936;2023-05-20T15:16:09;99066.25;;;19.97;56.22
40117;BME280;25829;50.228;18.936;2023-05-20T15:19:11;99053.44;;;19.99;56.24
40117;BME280;25829;50.228;18.936;2023-05-20T15:22:11;99040.88;;;20.04;56.22
40117;BME280;25829;50.228;18.936;2023-05-20T15:25:12;99042.50;;;20.05;56.03
40117;BME280;25829;50.228;18.936;2023-05-20T15:28:13;99036.06;;;20.07;56.07
40117;BME280;25829;50.228;18.936;2023-05-20T15:31:15;99041.44;;;20.07;56.18
40117;BME280;25829;50.228;18.936;2023-05-20T15:34:17;99041.16;;;20.08;56.28
40117;BME280;25829;50.228;18.936;2023-05-20T15:37:17;99038.78;;;20.12;55.84
40117;BME280;25829;50.228;18.936;2023-05-20T15:40:21;99040.72;;;20.16;55.43
40117;BME280;25829;50.228;18.936;2023-05-20T15:43:22;99038.03;;;20.16;55.77
40117;BME280;25829;50.228;18.936;2023-05-20T15:46:24;99032.09;;;20.14;55.57
40117;BME280;25829;50.228;18.936;2023-05-20T15:49:25;99038.03;;;20.16;55.28
40117;BME280;25829;50.228;18.936;2023-05-20T15:52:26;99031.31;;;20.14;55.23
40117;BME280;25829;50.228;18.936;2023-05-20T15:55:27;99046.06;;;20.16;55.13
40117;BME280;25829;50.228;18.936;2023-05-20T15:58:28;99043.38;;;20.16;55.54
40117;BME280;25829;50.228;18.936;2023-05-20T16:01:28;99037.72;;;20.13;55.70
40117;BME280;25829;50.228;18.936;2023-05-20T16:04:29;99037.97;;;20.11;56.02
40117;BME280;25829;50.228;18.936;2023-05-20T16:07:31;99042.03;;;20.14;55.98
40117;BME280;25829;50.228;18.936;2023-05-20T16:10:32;99035.34;;;20.16;55.70
40117;BME280;25829;50.228;18.936;2023-05-20T16:13:33;99047.94;;;20.16;56.05
40117;BME280;25829;50.228;18.936;2023-05-20T16:16:34;99043.09;;;20.13;55.86